Time;durP1;ratioP1;P1;durP2;ratioP2;P2;SDS_P1;SDS_P2;PMS_P1;PMS_P2;Temp;Humidity;BMP_temperature;BMP_pressure;BME280_temperature;BME280_humidity;BME280_pressure;Samples;Min_cycle;Max_cycle;Signal;HPM_P1;HPM_P2
2023/10/15 00:00:50;;;;;;;7.85;3.50;;;;;;;9.00;86.59;101711.50;5095485;28;20059;-66
2023/10/15 00:03:16;;;;;;;9.65;3.40;;;;;;;8.94;86.95;101706.03;5095500;28;20032;-66
2023/10/15 00:05:42;;;;;;;9.77;3.60;;;;;;;8.97;86.75;101707.03;5095538;28;20070;-66
2023/10/15 00:08:07;;;;;;;12.38;3.60;;;;;;;9.02;86.37;101704.53;5095475;28;20032;-65
2023/10/15 00:10:34;;;;;;;7.43;3.10;;;;;;;9.12;87.35;101714.53;5094691;28;20016;-65
2023/10/15 00:13:00;;;;;;;9.60;3.42;;;;;;;9.23;86.97;101733.28;5095325;28;20044;-66
2023/10/15 00:15:30;;;;;;;10.05;3.38;;;;;;;9.31;86.01;101744.06;5095277;28;20071;-66
2023/10/15 00:18:07;;;;;;;11.43;3.17;;;;;;;9.35;86.11;101740.69;5095140;28;20515;-66
2023/10/15 00:20:35;;;;;;;10.98;3.45;;;;;;;9.38;85.32;101740.75;5095317;28;20020;-66
2023/10/15 00:23:05;;;;;;;9.57;3.65;;;;;;;9.38;85.40;101754.88;5094988;28;20474;-66
2023/10/15 00:25:41;;;;;;;10.43;3.92;;;;;;;9.44;85.39;101740.97;5095309;28;20028;-66
2023/10/15 00:28:16;;;;;;;10.50;3.60;;;;;;;9.47;84.94;101746.34;5095011;28;20036;-66
2023/10/15 00:30:44;;;;;;;7.68;3.90;;;;;;;9.50;84.95;101742.00;5094843;28;20028;-65
2023/10/15 00:33:11;;;;;;;9.07;3.67;;;;;;;9.44;84.95;101735.69;5094956;28;20024;-66
2023/10/15 00:35:37;;;;;;;8.95;3.42;;;;;;;9.48;85.33;101740.19;5095294;28;20034;-66
2023/10/15 00:38:19;;;;;;;7.25;3.65;;;;;;;9.50;85.49;101736.72;5094720;28;20478;-66
2023/10/15 00:40:45;;;;;;;8.60;3.90;;;;;;;9.59;85.62;101748.41;5095124;28;20040;-66
2023/10/15 00:43:17;;;;;;;9.38;3.88;;;;;;;9.60;84.96;101742.31;5094552;28;20530;-66
2023/10/15 00:45:45;;;;;;;10.00;3.60;;;;;;;9.59;84.53;101740.50;5094774;28;20335;-66
2023/10/15 00:48:33;;;;;;;11.25;3.90;;;;;;;9.58;84.90;101739.59;5094711;28;20031;-66
2023/10/15 00:51:08;;;;;;;8.48;3.58;;;;;;;9.59;84.56;101735.22;5093362;28;20111;-66
2023/10/15 00:53:34;;;;;;;8.50;3.53;;;;;;;9.59;84.70;101735.22;5094579;28;20028;-66
2023/10/15 00:56:04;;;;;;;6.57;3.25;;;;;;;9.48;84.20;101719.09;5093296;28;20031;-66
2023/10/15 00:58:39;;;;;;;7.70;2.92;;;;;;;9.41;84.90;101707.47;5093938;28;20052;-66
2023/10/15 01:03:57;;;;;;;8.15;2.80;;;;;;;9.51;84.51;101713.91;5094424;28;20474;-66
2023/10/15 01:06:38;;;;;;;8.43;2.88;;;;;;;9.46;85.03;101712.88;5094900;28;20097;-67
2023/10/15 01:09:08;;;;;;;6.32;2.97;;;;;;;9.46;85.66;101713.78;5094397;28;20466;-66
2023/10/15 01:11:43;;;;;;;7.80;2.88;;;;;;;9.40;85.57;101705.66;5094429;28;20379;-66
2023/10/15 01:14:10;;;;;;;5.97;2.65;;;;;;;9.38;85.82;101704.75;5094313;28;20032;-66
2023/10/15 01:16:38;;;;;;;9.13;2.80;;;;;;;9.42;85.71;101700.44;5094412;28;20035;-66
2023/10/15 01:19:18;;;;;;;8.23;3.00;;;;;;;9.44;85.01;101704.03;5093104;28;20031;-66
2023/10/15 01:22:01;;;;;;;4.47;2.30;;;;;;;9.38;85.04;101695.91;5092862;28;20028;-66
2023/10/15 01:24:33;;;;;;;4.63;2.40;;;;;;;9.38;85.41;101701.19;5094305;28;20129;-66
2023/10/15 01:26:59;;;;;;;6.87;2.50;;;;;;;9.44;86.02;101710.19;5094377;28;20017;-66
2023/10/15 01:29:29;;;;;;;7.13;2.30;;;;;;;9.48;85.33;101704.16;5093884;28;20474;-66
2023/10/15 01:31:58;;;;;;;6.25;2.50;;;;;;;9.53;85.65;101715.72;5094018;28;20063;-66
2023/10/15 01:34:28;;;;;;;4.53;2.33;;;;;;;9.52;85.71;101724.50;5092931;28;20038;-66
2023/10/15 01:36:56;;;;;;;7.10;2.50;;;;;;;9.51;85.96;101722.72;5094109;28;20036;-66
2023/10/15 01:39:32;;;;;;;6.35;2.35;;;;;;;9.54;85.64;101724.53;5093898;28;20047;-66
2023/10/15 01:42:03;;;;;;;6.50;2.40;;;;;;;9.54;85.75;101722.78;5093889;28;20535;-66
2023/10/15 01:44:30;;;;;;;7.47;2.60;;;;;;;9.58;85.67;101730.81;5093786;28;20358;-66
2023/10/15 01:49:34;;;;;;;7.68;2.60;;;;;;;9.68;85.65;101746.97;5094140;28;20482;-66
2023/10/15 01:52:09;;;;;;;9.15;2.47;;;;;;;9.69;86.01;101751.38;5094044;28;20028;-66
2023/10/15 01:54:35;;;;;;;8.95;2.80;;;;;;;9.64;87.09;101737.16;5093518;28;20031;-66
2023/10/15 01:57:06;;;;;;;7.28;2.42;;;;;;;9.67;86.30;101725.78;5093501;28;20028;-66
2023/10/15 01:59:41;;;;;;;6.18;2.38;;;;;;;9.64;85.77;101704.59;5093171;28;20109;-66
2023/10/15 02:02:08;;;;;;;8.27;2.65;;;;;;;9.58;85.91;101699.13;5093442;28;20074;-67
2023/10/15 02:04:42;;;;;;;5.72;2.80;;;;;;;9.45;86.03;101700.53;5093368;28;20469;-66
2023/10/15 02:07:12;;;;;;;5.65;2.70;;;;;;;9.37;86.79;101700.31;5093332;28;20488;-66
2023/10/15 02:09:38;;;;;;;5.72;2.80;;;;;;;9.35;88.24;101694.09;5093678;28;20036;-66
2023/10/15 02:12:05;;;;;;;5.53;2.83;;;;;;;9.26;88.21;101691.19;5093294;28;20031;-66
2023/10/15 02:14:30;;;;;;;9.52;3.05;;;;;;;9.18;88.94;101683.06;5091718;28;20032;-66
2023/10/15 02:16:59;;;;;;;8.85;2.92;;;;;;;9.07;89.14;101681.81;5093420;28;20035;-66
2023/10/15 02:21:59;;;;;;;8.82;3.05;;;;;;;9.09;89.69;101701.22;5093463;28;20036;-66
2023/10/15 02:24:24;;;;;;;7.13;3.00;;;;;;;9.09;89.17;101695.97;5093074;28;20116;-66
2023/10/15 02:26:49;;;;;;;6.20;3.20;;;;;;;9.05;89.01;101688.81;5093030;28;20478;-67
2023/10/15 02:32:07;;;;;;;6.38;3.10;;;;;;;9.08;89.37;101688.91;5093648;28;20036;-67
2023/10/15 02:34:40;;;;;;;10.20;3.40;;;;;;;9.08;89.70;101691.53;5095585;28;20089;-67
2023/10/15 02:37:16;;;;;;;9.88;3.42;;;;;;;9.13;88.75;101691.69;5097211;28;20523;-67
2023/10/15 02:39:49;;;;;;;8.40;3.47;;;;;;;9.18;88.55;101693.59;5097407;28;20035;-66
2023/10/15 02:42:31;;;;;;;8.38;3.15;;;;;;;9.17;89.53;101686.53;5097176;28;20042;-67
2023/10/15 02:45:01;;;;;;;9.00;3.70;;;;;;;9.13;88.75;101686.41;5097397;28;20085;-66
2023/10/15 02:47:41;;;;;;;9.35;3.60;;;;;;;9.03;88.67;101693.13;5097109;28;20430;-67
2023/10/15 02:50:07;;;;;;;9.30;3.40;;;;;;;9.03;89.43;101690.47;5097041;28;20070;-67
2023/10/15 02:52:35;;;;;;;5.43;3.03;;;;;;;8.99;89.95;101743.97;5096952;28;20024;-67
2023/10/15 02:55:09;;;;;;;8.75;3.30;;;;;;;8.89;91.58;101763.88;5096934;28;20032;-66
2023/10/15 02:57:40;;;;;;;7.40;2.92;;;;;;;8.84;93.06;101757.56;5096718;28;20452;-67
2023/10/15 03:00:18;;;;;;;5.85;2.83;;;;;;;8.78;92.69;101758.25;5096949;28;20096;-67
2023/10/15 03:02:44;;;;;;;3.50;2.22;;;;;;;8.79;93.27;101767.06;5096789;28;20040;-67
2023/10/15 03:05:15;;;;;;;5.07;2.00;;;;;;;8.78;92.39;101754.75;5095561;28;20489;-67
2023/10/15 03:07:44;;;;;;;4.72;2.10;;;;;;;8.77;92.18;101755.56;5096693;28;20028;-67
2023/10/15 03:10:21;;;;;;;6.03;2.38;;;;;;;8.76;91.37;101746.75;5096538;28;20465;-67
2023/10/15 03:12:47;;;;;;;6.97;2.13;;;;;;;8.85;90.69;101764.59;5096885;28;20047;-67
2023/10/15 03:15:14;;;;;;;2.97;1.88;;;;;;;8.88;90.66;101762.09;5096390;28;20417;-67
2023/10/15 03:17:46;;;;;;;5.40;2.20;;;;;;;8.97;91.08;101769.38;5096385;28;20155;-68
2023/10/15 03:22:44;;;;;;;5.95;2.33;;;;;;;8.98;91.03;101793.16;5096590;28;20046;-66
2023/10/15 03:25:16;;;;;;;8.10;2.40;;;;;;;9.00;91.57;101778.31;5096373;28;20031;-65
2023/10/15 03:27:48;;;;;;;;;;;;;;;9.12;90.51;101767.25;5096908;28;20043;-65
2023/10/15 03:30:15;;;;;;;3.58;2.00;;;;;;;9.04;90.86;101771.38;5096089;28;20382;-65
2023/10/15 03:32:44;;;;;;;5.03;2.15;;;;;;;8.96;91.34;101747.41;5096433;28;20024;-65
2023/10/15 03:35:27;;;;;;;3.88;1.80;;;;;;;9.00;90.43;101738.75;5096478;28;20032;-65
2023/10/15 03:37:59;;;;;;;3.63;1.92;;;;;;;9.07;90.79;101754.75;5096260;28;20463;-65
2023/10/15 03:40:31;;;;;;;;;;;;;;;9.05;90.71;101752.09;5096728;28;20043;-65
2023/10/15 03:43:06;;;;;;;3.78;1.67;;;;;;;8.81;91.73;101770.63;5096104;28;20018;-64
2023/10/15 03:45:50;;;;;;;2.88;1.60;;;;;;;8.74;92.27;101773.94;5094734;28;20060;-65
2023/10/15 03:48:28;;;;;;;2.15;1.63;;;;;;;8.84;91.84;101773.38;5096114;28;20131;-65
2023/10/15 03:50:54;;;;;;;2.92;1.55;;;;;;;9.00;91.32;101756.31;5095085;28;20123;-65
2023/10/15 03:53:34;;;;;;;2.78;1.60;;;;;;;9.02;91.30;101766.03;5096128;28;20103;-65
2023/10/15 03:56:01;;;;;;;5.47;2.10;;;;;;;9.01;90.88;101777.44;5095765;28;20038;-65
2023/10/15 03:58:33;;;;;;;3.08;1.80;;;;;;;9.06;91.27;101772.31;5095573;28;20051;-66
2023/10/15 04:03:35;;;;;;;2.38;1.63;;;;;;;9.13;91.40;101778.69;5095784;28;20032;-65
2023/10/15 04:06:05;;;;;;;5.03;1.80;;;;;;;9.07;91.92;101789.91;5095678;28;20024;-66
2023/10/15 04:08:31;;;;;;;3.28;1.80;;;;;;;9.03;91.23;101785.38;5095619;28;20028;-66
2023/10/15 04:11:00;;;;;;;3.65;1.67;;;;;;;9.03;91.88;101785.38;5095776;28;20030;-65
2023/10/15 04:13:27;;;;;;;3.60;1.80;;;;;;;9.04;91.52;101779.28;5095374;28;20020;-66
2023/10/15 04:15:56;;;;;;;3.45;2.03;;;;;;;9.01;91.76;101787.09;5095509;28;20485;-66
2023/10/15 04:18:23;;;;;;;2.55;1.70;;;;;;;8.97;91.99;101786.09;5095337;28;20043;-66
2023/10/15 04:20:49;;;;;;;3.45;1.70;;;;;;;8.93;92.17;101778.03;5095549;28;20024;-66
2023/10/15 04:23:30;;;;;;;4.82;1.60;;;;;;;8.92;92.48;101781.53;5095618;28;20107;-66
2023/10/15 04:25:57;;;;;;;4.68;1.90;;;;;;;8.90;92.43;101785.84;5095520;28;20109;-65
2023/10/15 04:28:25;;;;;;;3.35;1.67;;;;;;;8.85;92.64;101784.81;5094033;28;20473;-66
2023/10/15 04:30:51;;;;;;;4.75;1.75;;;;;;;8.70;93.34;101774.66;5094920;28;20035;-66
2023/10/15 04:33:19;;;;;;;4.43;1.90;;;;;;;8.66;94.25;101780.69;5095154;28;20391;-66
2023/10/15 04:35:48;;;;;;;3.40;1.90;;;;;;;8.62;94.54;101770.88;5094178;28;20056;-65
2023/10/15 04:38:21;;;;;;;6.20;2.05;;;;;;;8.47;95.21;101750.16;5095036;28;20516;-65
2023/10/15 04:43:27;;;;;;;3.92;2.10;;;;;;;8.42;96.01;101762.28;5095318;28;20032;-65
2023/10/15 04:45:57;;;;;;;3.72;1.90;;;;;;;8.58;95.97;101764.59;5095038;28;20081;-66
2023/10/15 04:48:38;;;;;;;3.95;1.80;;;;;;;8.70;95.69;101767.66;5094709;28;20107;-65
2023/10/15 04:51:12;;;;;;;4.18;1.80;;;;;;;8.77;94.81;101772.25;5094802;28;20107;-66
2023/10/15 04:53:50;;;;;;;3.38;1.80;;;;;;;8.83;94.38;101762.78;5094996;28;20036;-66
2023/10/15 04:56:16;;;;;;;5.80;2.00;;;;;;;8.81;94.34;101756.56;5094434;28;20036;-65
2023/10/15 04:58:42;;;;;;;4.38;2.35;;;;;;;8.86;94.30;101749.69;5094124;28;20063;-66
2023/10/15 05:01:08;;;;;;;3.03;1.83;;;;;;;8.78;94.63;101734.53;5094196;28;20031;-66
2023/10/15 05:03:36;;;;;;;4.65;2.00;;;;;;;8.68;94.08;101721.00;5094767;28;20056;-66
2023/10/15 05:06:04;;;;;;;6.55;2.30;;;;;;;8.66;95.19;101738.53;5094473;28;20478;-66
2023/10/15 05:08:30;;;;;;;3.65;1.92;;;;;;;8.69;95.30;101741.22;5093477;28;20107;-66
2023/10/15 05:10:55;;;;;;;5.57;2.40;;;;;;;8.73;94.56;101751.03;5094302;28;20561;-66
2023/10/15 05:13:21;;;;;;;3.70;2.17;;;;;;;8.80;94.97;101757.41;5094345;28;20016;-66
2023/10/15 05:15:47;;;;;;;3.22;2.00;;;;;;;8.90;94.75;101747.19;5094084;28;20035;-66
2023/10/15 05:18:15;;;;;;;6.13;2.28;;;;;;;8.97;94.06;101743.91;5094212;28;20024;-66
2023/10/15 05:20:41;;;;;;;5.13;2.10;;;;;;;8.99;93.46;101750.16;5094156;28;20024;-66
2023/10/15 05:23:07;;;;;;;6.30;2.67;;;;;;;8.96;93.72;101736.88;5094368;28;20054;-66
2023/10/15 05:25:32;;;;;;;5.32;2.35;;;;;;;9.02;93.64;101752.88;5093947;28;20461;-66
2023/10/15 05:27:59;;;;;;;5.75;2.45;;;;;;;9.02;93.37;101766.03;5094068;28;20025;-66
2023/10/15 05:30:26;;;;;;;6.30;2.60;;;;;;;9.08;94.19;101777.63;5093900;28;20102;-66
2023/10/15 05:32:51;;;;;;;4.00;2.30;;;;;;;9.14;94.63;101786.63;5093929;28;20081;-66
2023/10/15 05:35:17;;;;;;;3.53;2.20;;;;;;;9.10;94.49;101794.41;5094019;28;20028;-66
2023/10/15 05:37:44;;;;;;;3.90;2.28;;;;;;;9.07;94.66;101789.91;5093775;28;20035;-66
2023/10/15 05:40:15;;;;;;;5.30;2.30;;;;;;;9.09;94.68;101803.16;5093800;28;20034;-66
2023/10/15 05:42:41;;;;;;;7.28;2.38;;;;;;;9.09;94.57;101813.72;5093890;28;20020;-66
2023/10/15 05:45:07;;;;;;;6.10;2.47;;;;;;;9.01;94.82;101808.19;5093655;28;20039;-66
2023/10/15 05:47:36;;;;;;;3.13;1.80;;;;;;;8.75;93.40;101780.97;5094002;28;20032;-66
2023/10/15 05:50:05;;;;;;;3.70;1.80;;;;;;;8.80;92.97;101808.38;5093748;28;20490;-66
2023/10/15 05:52:31;;;;;;;5.25;1.77;;;;;;;8.75;92.40;101808.22;5093741;28;20367;-66
2023/10/15 05:54:56;;;;;;;3.55;1.50;;;;;;;8.70;92.51;101795.75;5093614;28;20605;-66
2023/10/15 05:57:22;;;;;;;2.92;1.52;;;;;;;8.67;91.80;101793.00;5092067;28;20024;-67
2023/10/15 05:59:48;;;;;;;3.22;1.50;;;;;;;8.65;92.43;101792.03;5092065;28;20039;-66
2023/10/15 06:02:14;;;;;;;2.80;1.20;;;;;;;8.65;91.34;101807.84;5093542;28;20077;-66
2023/10/15 06:04:39;;;;;;;3.67;1.40;;;;;;;8.61;90.88;101808.59;5093322;28;20031;-66
2023/10/15 06:07:05;;;;;;;2.00;1.10;;;;;;;8.56;91.46;101812.81;5093371;28;20493;-66
2023/10/15 06:09:34;;;;;;;4.15;1.48;;;;;;;8.51;91.88;101815.28;5092745;28;20024;-66
2023/10/15 06:12:00;;;;;;;2.97;1.40;;;;;;;8.50;92.75;101808.22;5092959;28;20096;-66
2023/10/15 06:14:28;;;;;;;4.47;1.48;;;;;;;8.47;91.57;101824.81;5092949;28;20024;-66
2023/10/15 06:16:54;;;;;;;1.83;1.02;;;;;;;8.55;92.55;101825.09;5092963;28;20103;-66
2023/10/15 06:19:20;;;;;;;3.55;1.20;;;;;;;8.52;91.66;101836.44;5093308;28;20028;-66
2023/10/15 06:21:45;;;;;;;3.42;1.75;;;;;;;8.51;92.27;101831.09;5092872;28;20059;-67
2023/10/15 06:24:11;;;;;;;2.53;1.40;;;;;;;8.49;91.98;101835.41;5092860;28;20025;-66
2023/10/15 06:26:37;;;;;;;3.78;1.40;;;;;;;8.49;92.13;101832.78;5092927;28;20482;-66
2023/10/15 06:29:03;;;;;;;3.97;1.58;;;;;;;8.45;91.84;101834.41;5093026;28;20043;-66
2023/10/15 06:31:28;;;;;;;4.32;1.58;;;;;;;8.47;92.28;101831.81;5092973;28;20461;-66
2023/10/15 06:33:55;;;;;;;2.22;1.00;;;;;;;8.51;92.16;101833.72;5091604;28;20024;-66
2023/10/15 06:36:21;;;;;;;2.40;1.40;;;;;;;8.55;92.29;101827.72;5092992;28;20035;-66
2023/10/15 06:38:47;;;;;;;3.67;1.50;;;;;;;8.58;93.63;101829.56;5092660;28;20058;-66
2023/10/15 06:41:13;;;;;;;3.25;1.50;;;;;;;8.59;92.39;101842.78;5093012;28;20024;-66
2023/10/15 06:43:38;;;;;;;3.22;1.60;;;;;;;8.60;92.84;101841.94;5092613;28;20108;-66
2023/10/15 06:46:07;;;;;;;5.97;1.80;;;;;;;8.61;92.34;101842.81;5092893;28;20031;-66
2023/10/15 06:48:41;;;;;;;4.10;1.52;;;;;;;8.59;92.48;101832.25;5091324;28;20115;-66
2023/10/15 06:51:06;;;;;;;4.28;1.50;;;;;;;8.63;92.48;101843.78;5092874;28;20115;-66
2023/10/15 06:53:32;;;;;;;3.13;1.33;;;;;;;8.64;92.48;101841.19;5092613;28;20149;-66
2023/10/15 06:55:58;;;;;;;3.45;1.55;;;;;;;8.66;92.83;101836.91;5092549;28;20470;-66
2023/10/15 06:58:25;;;;;;;4.10;1.73;;;;;;;8.75;92.52;101847.75;5092096;28;20048;-66
2023/10/15 07:00:54;;;;;;;4.70;1.60;;;;;;;8.70;92.01;101836.16;5090896;28;20070;-66
2023/10/15 07:03:20;;;;;;;3.25;1.55;;;;;;;8.73;92.06;101849.41;5092363;28;20454;-66
2023/10/15 07:05:45;;;;;;;3.88;1.70;;;;;;;8.82;92.51;101855.84;5092674;28;20024;-66
2023/10/15 07:08:11;;;;;;;7.88;1.90;;;;;;;8.88;92.13;101856.06;5092561;28;20040;-66
2023/10/15 07:10:37;;;;;;;3.72;1.63;;;;;;;8.99;92.71;101865.22;5092484;28;20031;-66
2023/10/15 07:13:03;;;;;;;7.13;1.90;;;;;;;9.01;92.55;101869.72;5092280;28;20490;-66
2023/10/15 07:15:29;;;;;;;4.35;1.88;;;;;;;9.09;92.76;101872.63;5091297;28;20081;-66
2023/10/15 07:17:55;;;;;;;3.30;1.85;;;;;;;9.11;92.67;101873.53;5092284;28;20128;-66
2023/10/15 07:20:21;;;;;;;4.20;1.88;;;;;;;9.16;92.00;101877.22;5092951;28;20018;-65
2023/10/15 07:22:49;;;;;;;4.82;2.20;;;;;;;9.19;92.32;101879.97;5096022;28;20040;-66
2023/10/15 07:25:18;;;;;;;3.33;1.80;;;;;;;9.26;92.35;101883.72;5096272;28;20111;-66
2023/10/15 07:27:48;;;;;;;3.13;1.60;;;;;;;9.35;92.59;101873.47;5096039;28;20484;-66
2023/10/15 07:30:15;;;;;;;6.50;1.80;;;;;;;9.44;91.99;101875.50;5096060;28;20036;-65
2023/10/15 07:32:44;;;;;;;3.03;1.55;;;;;;;9.54;92.79;101889.00;5095835;28;20097;-67
2023/10/15 07:35:11;;;;;;;5.25;1.70;;;;;;;9.69;92.76;101891.25;5095805;28;20017;-65
2023/10/15 07:37:40;;;;;;;2.72;1.70;;;;;;;9.74;91.08;101897.56;5095708;28;20030;-66
2023/10/15 07:40:11;;;;;;;4.20;2.08;;;;;;;9.76;91.18;101910.78;5095725;28;20465;-65
2023/10/15 07:42:37;;;;;;;4.90;2.08;;;;;;;9.76;91.45;101914.38;5095896;28;20393;-66
2023/10/15 07:45:05;;;;;;;4.22;2.10;;;;;;;9.76;91.16;101910.78;5095373;28;20034;-66
2023/10/15 07:47:31;;;;;;;6.05;2.03;;;;;;;9.79;90.74;101903.88;5095543;28;20040;-65
2023/10/15 07:49:57;;;;;;;3.42;1.77;;;;;;;9.82;90.88;101904.84;5095468;28;20081;-65
2023/10/15 07:52:24;;;;;;;4.43;1.83;;;;;;;9.90;90.27;101900.69;5095440;28;20508;-66
2023/10/15 07:54:50;;;;;;;5.05;2.35;;;;;;;9.94;90.57;101903.47;5095587;28;20028;-66
2023/10/15 07:57:16;;;;;;;4.75;3.00;;;;;;;10.04;91.37;101910.81;5095620;28;20393;-66
2023/10/15 07:59:41;;;;;;;4.68;2.03;;;;;;;10.08;90.33;101918.81;5094951;28;20067;-65
2023/10/15 08:02:07;;;;;;;4.03;1.85;;;;;;;10.25;90.27;101930.81;5095701;28;20035;-67
2023/10/15 08:04:34;;;;;;;4.22;2.17;;;;;;;10.24;90.05;101939.56;5095287;28;20059;-66
2023/10/15 08:07:00;;;;;;;5.60;2.20;;;;;;;10.15;90.07;101919.06;5095280;28;20031;-66
2023/10/15 08:09:26;;;;;;;4.75;2.10;;;;;;;10.13;90.79;101923.38;5094358;28;20035;-67
2023/10/15 08:11:51;;;;;;;4.47;2.25;;;;;;;10.17;90.66;101927.03;5095139;28;20107;-67
2023/10/15 08:14:17;;;;;;;5.07;2.28;;;;;;;10.17;90.18;101924.38;5095062;28;20031;-66
2023/10/15 08:16:42;;;;;;;3.65;1.90;;;;;;;10.23;90.33;101924.53;5095100;28;20516;-66
2023/10/15 08:19:08;;;;;;;5.43;2.08;;;;;;;10.24;90.63;101936.94;5095050;28;20029;-67
2023/10/15 08:21:33;;;;;;;3.85;2.05;;;;;;;10.24;89.83;101939.56;5094932;28;20535;-66
2023/10/15 08:23:58;;;;;;;5.22;2.00;;;;;;;10.23;89.39;101943.91;5095031;28;20028;-67
2023/10/15 08:26:24;;;;;;;5.13;2.15;;;;;;;10.16;89.56;101947.25;5095194;28;20485;-67
2023/10/15 08:28:49;;;;;;;3.60;1.95;;;;;;;10.09;89.71;101952.28;5094671;28;20486;-68
2023/10/15 08:31:14;;;;;;;5.05;1.98;;;;;;;10.12;91.33;101961.22;5094158;28;20032;-67
2023/10/15 08:33:40;;;;;;;5.70;2.10;;;;;;;10.23;91.21;101961.53;5093425;28;20052;-66
2023/10/15 08:36:07;;;;;;;7.88;2.28;;;;;;;10.24;90.70;101974.84;5094809;28;20138;-67
2023/10/15 08:38:34;;;;;;;7.55;2.10;;;;;;;10.25;90.73;102002.13;5094478;28;20474;-67
2023/10/15 08:41:04;;;;;;;5.20;2.00;;;;;;;10.22;91.72;102013.47;5094630;28;20063;-66
2023/10/15 08:43:32;;;;;;;6.03;1.98;;;;;;;10.14;92.03;102003.50;5094728;28;20077;-66
2023/10/15 08:45:58;;;;;;;5.30;2.00;;;;;;;10.11;92.10;102024.56;5094397;28;20032;-67
2023/10/15 08:48:25;;;;;;;4.68;1.88;;;;;;;10.04;92.97;102012.91;5094577;28;20489;-67
2023/10/15 08:50:54;;;;;;;5.18;1.90;;;;;;;9.99;93.11;102017.16;5094275;28;20052;-66
2023/10/15 08:53:22;;;;;;;5.43;2.00;;;;;;;9.96;93.76;102017.03;5093896;28;20040;-66
2023/10/15 08:55:49;;;;;;;3.83;1.90;;;;;;;9.92;94.44;102010.75;5092817;28;20451;-66
2023/10/15 08:58:18;;;;;;;5.20;2.00;;;;;;;9.88;93.81;102023.81;5094143;28;20083;-66
2023/10/15 09:00:47;;;;;;;6.13;1.90;;;;;;;9.86;93.64;102038.72;5094096;28;20024;-67
2023/10/15 09:03:15;;;;;;;4.65;1.80;;;;;;;9.80;94.67;102047.31;5093067;28;20166;-66
2023/10/15 09:05:42;;;;;;;6.10;1.90;;;;;;;9.77;94.99;102047.22;5094156;28;20537;-66
2023/10/15 09:08:08;;;;;;;6.43;1.88;;;;;;;9.75;94.89;102056.81;5094121;28;20174;-65
2023/10/15 09:10:42;;;;;;;4.07;1.80;;;;;;;9.73;94.47;102055.91;5093941;28;20050;-67
2023/10/15 09:13:15;;;;;;;4.07;1.90;;;;;;;9.72;93.92;102057.63;5094216;28;20215;-66
2023/10/15 09:15:45;;;;;;;;;;;;;;;9.82;93.28;102056.19;5094366;28;20100;-66
2023/10/15 09:18:11;;;;;;;4.28;1.60;;;;;;;9.82;93.37;102058.84;5093931;28;19912;-68
2023/10/15 09:20:40;;;;;;;4.35;1.60;;;;;;;9.93;94.01;102061.81;5093694;28;20458;-64
2023/10/15 09:23:05;;;;;;;2.38;1.42;;;;;;;10.06;93.68;102068.38;5094068;28;20077;-66
2023/10/15 09:25:31;;;;;;;3.95;1.70;;;;;;;10.10;94.30;102075.56;5093522;28;20119;-67
2023/10/15 09:27:57;;;;;;;3.13;1.65;;;;;;;10.09;91.70;102069.38;5093585;28;20028;-67
2023/10/15 09:30:27;;;;;;;4.90;1.80;;;;;;;10.11;91.19;102054.50;5093672;28;20024;-69
2023/10/15 09:32:54;;;;;;;5.03;1.80;;;;;;;10.25;91.85;102060.25;5093670;28;20393;-66
2023/10/15 09:35:21;;;;;;;5.47;2.22;;;;;;;10.69;92.78;102055.44;5092759;28;20024;-69
2023/10/15 09:37:46;;;;;;;4.18;1.70;;;;;;;11.35;92.27;102050.25;5093539;28;20504;-67
2023/10/15 09:40:19;;;;;;;2.72;1.42;;;;;;;12.01;89.28;102062.56;5093348;28;20119;-66
2023/10/15 09:42:49;;;;;;;4.00;1.40;;;;;;;12.43;83.89;102065.34;5093489;28;20028;-68
2023/10/15 09:45:18;;;;;;;4.90;1.70;;;;;;;12.64;81.66;102067.56;5093042;28;20016;-65
2023/10/15 09:47:52;;;;;;;4.43;1.70;;;;;;;12.46;80.48;102069.78;5093516;28;20488;-68
2023/10/15 09:50:25;;;;;;;2.90;1.50;;;;;;;12.33;82.60;102073.03;5093349;28;20047;-65
2023/10/15 09:52:57;;;;;;;4.10;1.42;;;;;;;12.18;82.41;102082.41;5093304;28;20435;-70
2023/10/15 09:55:26;;;;;;;5.22;2.00;;;;;;;12.02;83.73;102082.88;5093383;28;20107;-69
2023/10/15 09:57:55;;;;;;;4.28;1.65;;;;;;;11.87;84.39;102091.38;5088278;28;20027;-70
2023/10/15 10:00:32;;;;;;;4.32;1.60;;;;;;;11.78;83.86;102091.09;5090542;28;20058;-68
2023/10/15 10:03:17;;;;;;;5.03;1.70;;;;;;;11.65;84.77;102086.31;5089798;28;20035;-66
2023/10/15 10:05:58;;;;;;;5.20;1.70;;;;;;;11.65;85.78;102095.19;5091258;28;20051;-69
2023/10/15 10:08:39;;;;;;;3.10;1.70;;;;;;;11.61;85.02;102095.94;5091051;28;20026;-68
2023/10/15 10:11:34;;;;;;;3.78;1.50;;;;;;;11.57;83.04;102095.84;5090744;28;20024;-66
2023/10/15 10:14:16;;;;;;;3.28;1.50;;;;;;;11.47;84.24;102097.31;5061997;28;20032;-66
2023/10/15 10:16:43;;;;;;;3.33;1.40;;;;;;;11.41;83.98;102099.81;5090653;28;20020;-65
2023/10/15 10:19:09;;;;;;;3.83;1.40;;;;;;;11.48;84.83;102102.66;5092248;28;20020;-65
2023/10/15 10:21:35;;;;;;;4.47;1.70;;;;;;;11.66;85.29;102117.25;5093183;28;20034;-65
2023/10/15 10:24:09;;;;;;;6.18;1.60;;;;;;;11.64;82.95;102118.94;5093136;28;20051;-65
2023/10/15 10:26:37;;;;;;;4.20;1.70;;;;;;;11.60;82.39;102127.66;5092884;28;20109;-66
2023/10/15 10:29:03;;;;;;;3.33;1.50;;;;;;;11.57;84.12;102133.78;5093239;28;20024;-65
2023/10/15 10:31:33;;;;;;;3.38;1.35;;;;;;;11.58;83.01;102132.94;5092407;28;20087;-65
2023/10/15 10:34:03;;;;;;;2.95;1.38;;;;;;;11.41;82.67;102132.47;5091668;28;20530;-65
2023/10/15 10:36:30;;;;;;;5.80;1.58;;;;;;;11.45;84.37;102137.00;5092683;28;20024;-65
2023/10/15 10:39:08;;;;;;;2.60;1.50;;;;;;;11.48;84.01;102139.72;5092615;28;20032;-65
2023/10/15 10:41:37;;;;;;;3.55;1.50;;;;;;;11.65;84.22;102129.59;5092917;28;20035;-65
2023/10/15 10:44:03;;;;;;;3.58;1.48;;;;;;;11.72;83.53;102136.81;5092918;28;20426;-65
2023/10/15 10:46:29;;;;;;;3.30;1.60;;;;;;;12.00;82.52;102133.19;5092538;28;20115;-65
2023/10/15 10:49:05;;;;;;;4.18;1.48;;;;;;;12.37;82.31;102134.09;5092650;28;20106;-65
2023/10/15 10:51:33;;;;;;;4.53;1.42;;;;;;;12.52;80.50;102137.13;5092901;28;20020;-65
2023/10/15 10:53:59;;;;;;;4.82;1.63;;;;;;;12.68;79.01;102138.38;5092765;28;20047;-65
2023/10/15 10:56:44;;;;;;;5.05;1.67;;;;;;;12.85;80.68;102132.53;5096508;28;20436;-66
2023/10/15 10:59:11;;;;;;;3.35;1.83;;;;;;;12.89;78.29;102132.66;5095727;28;20548;-66
2023/10/15 11:01:45;;;;;;;4.68;1.77;;;;;;;12.83;75.62;102129.84;5095800;28;20035;-64
2023/10/15 11:04:15;;;;;;;5.60;1.65;;;;;;;12.81;74.93;102128.94;5091023;28;20111;-66
2023/10/15 11:06:51;;;;;;;4.22;1.50;;;;;;;12.82;75.90;102143.97;5094966;28;20093;-65
2023/10/15 11:09:19;;;;;;;4.97;1.80;;;;;;;12.81;77.00;102136.91;5094703;28;20095;-65
2023/10/15 11:11:49;;;;;;;4.90;1.65;;;;;;;12.81;76.77;102142.19;5094387;28;20412;-65
2023/10/15 11:14:15;;;;;;;4.75;2.00;;;;;;;12.92;76.91;102137.13;5094297;28;20032;-66
2023/10/15 11:16:45;;;;;;;5.72;1.90;;;;;;;13.16;79.01;102140.31;5094621;28;20021;-65
2023/10/15 11:19:29;;;;;;;4.90;1.80;;;;;;;13.66;79.44;102129.84;5094152;28;20575;-65
2023/10/15 11:21:55;;;;;;;6.60;1.67;;;;;;;14.14;74.80;102142.19;5095352;28;20465;-65
2023/10/15 11:24:25;;;;;;;2.88;1.58;;;;;;;14.64;76.09;102139.44;5095847;28;20024;-65
2023/10/15 11:26:54;;;;;;;5.45;1.80;;;;;;;15.09;69.35;102142.75;5095883;28;20036;-66
2023/10/15 11:29:22;;;;;;;4.28;1.70;;;;;;;15.44;69.01;102149.38;5082972;28;20378;-65
2023/10/15 11:31:49;;;;;;;4.13;1.65;;;;;;;15.65;64.88;102143.44;5074306;28;20036;-64
2023/10/15 11:34:25;;;;;;;4.53;1.70;;;;;;;15.49;65.67;102152.09;5075842;28;20036;-65
2023/10/15 11:36:55;;;;;;;5.45;1.77;;;;;;;15.41;65.95;102157.31;5075619;28;20064;-64
2023/10/15 11:42:19;;;;;;;4.60;1.70;;;;;;;15.66;65.17;102145.22;5058129;28;20355;-62
2023/10/15 11:44:45;;;;;;;5.20;1.70;;;;;;;16.09;66.35;102134.97;5075309;28;20470;-63
2023/10/15 11:47:12;;;;;;;3.95;1.67;;;;;;;16.51;61.31;102139.75;5075683;28;20119;-62
2023/10/15 11:49:38;;;;;;;3.70;1.55;;;;;;;16.67;59.17;102142.53;5075643;28;20040;-59
2023/10/15 11:52:05;;;;;;;4.35;1.63;;;;;;;16.70;61.14;102135.44;5075215;28;20355;-61
2023/10/15 11:54:32;;;;;;;7.03;2.05;;;;;;;16.41;60.74;102137.91;5075549;28;20031;-60
2023/10/15 11:57:04;;;;;;;3.85;1.80;;;;;;;16.43;61.87;102138.78;5075188;28;20039;-60
2023/10/15 11:59:31;;;;;;;3.70;1.60;;;;;;;16.25;61.35;102147.56;5074789;28;20048;-61
2023/10/15 12:02:00;;;;;;;3.40;1.58;;;;;;;16.27;62.09;102137.81;5075460;28;20040;-61